createdAt,value
2022-08-07T00:02:37.131Z,51.39
2022-08-07T00:03:05.432Z,51.38
2022-08-07T00:04:15.323Z,51.45
2022-08-07T00:05:16.647Z,51.61
2022-08-07T00:06:32.921Z,51.73
2022-08-07T00:07:48.072Z,51.68
2022-08-07T00:08:53.357Z,51.64
2022-08-07T00:10:19.123Z,51.57
2022-08-07T00:11:06.443Z,51.52
2022-08-07T00:13:25.784Z,51.19
2022-08-07T00:14:30.158Z,51.18
2022-08-07T00:15:37.644Z,51.26
2022-08-07T00:17:01.935Z,51.41
2022-08-07T00:19:21.615Z,51.67
2022-08-07T00:20:29.829Z,51.73
2022-08-07T00:21:56.148Z,51.80
2022-08-07T00:22:35.334Z,51.89
2022-08-07T00:24:51.743Z,51.88
2022-08-07T00:26:00.025Z,51.80
2022-08-07T00:28:12.461Z,51.79
2022-08-07T00:29:18.671Z,51.56
2022-08-07T00:30:27.000Z,51.43
2022-08-07T00:32:41.470Z,51.16
2022-08-07T00:33:47.710Z,51.16
2022-08-07T00:36:04.584Z,51.14
2022-08-07T00:38:31.359Z,51.26
2022-08-07T00:39:26.274Z,51.26
2022-08-07T00:42:02.481Z,51.05
2022-08-07T00:44:00.785Z,51.13
2022-08-07T00:45:27.654Z,50.84
2022-08-07T00:48:09.273Z,50.83
2022-08-07T00:48:49.982Z,50.96
2022-08-07T00:50:20.124Z,51.18
2022-08-07T00:52:12.514Z,51.04
2022-08-07T00:53:16.629Z,51.34
2022-08-07T00:54:21.160Z,51.38
2022-08-07T00:56:36.925Z,50.74
2022-08-07T00:57:55.107Z,50.89
2022-08-07T00:58:46.921Z,51.40
2022-08-07T00:59:52.933Z,51.21
2022-08-07T01:02:14.078Z,51.46
2022-08-07T01:04:25.401Z,51.46
2022-08-07T01:05:31.353Z,51.89
2022-08-07T01:06:36.797Z,51.54
2022-08-07T01:07:40.693Z,51.35
2022-08-07T01:08:52.816Z,51.38
2022-08-07T01:10:06.690Z,51.28
2022-08-07T01:10:56.864Z,51.15
2022-08-07T01:13:16.370Z,51.09
2022-08-07T01:16:05.307Z,51.02
2022-08-07T01:16:43.109Z,50.98
2022-08-07T01:18:58.002Z,51.00
2022-08-07T01:20:08.746Z,51.13
2022-08-07T01:21:22.467Z,51.14
2022-08-07T01:22:22.796Z,51.22
2022-08-07T01:23:36.333Z,51.38
2022-08-07T01:24:55.401Z,51.46
2022-08-07T01:26:00.083Z,51.29
2022-08-07T01:27:04.888Z,51.45
2022-08-07T01:28:08.420Z,51.38
2022-08-07T01:29:14.192Z,51.30
2022-08-07T01:30:19.385Z,51.16
2022-08-07T01:32:34.347Z,51.14
2022-08-07T01:33:56.084Z,51.18
2022-08-07T01:34:44.312Z,51.16
2022-08-07T01:37:01.601Z,50.81
2022-08-07T01:39:17.030Z,50.65
2022-08-07T01:40:22.566Z,50.85
2022-08-07T01:41:27.874Z,50.93
2022-08-07T01:43:43.484Z,50.68
2022-08-07T01:44:47.949Z,50.63
2022-08-07T01:48:16.411Z,50.65
2022-08-07T01:48:30.466Z,50.81
2022-08-07T01:49:15.957Z,50.81
2022-08-07T01:52:04.166Z,50.94
2022-08-07T01:54:08.822Z,50.94
2022-08-07T01:58:29.074Z,51.41
2022-08-07T02:00:49.277Z,51.74
2022-08-07T02:03:21.672Z,51.71
2022-08-07T02:04:30.343Z,51.73
2022-08-07T02:07:12.957Z,51.54
2022-08-07T02:08:23.874Z,51.46
2022-08-07T02:09:33.897Z,51.67
2022-08-07T02:10:37.176Z,51.62
2022-08-07T02:12:59.695Z,51.57
2022-08-07T02:14:04.517Z,51.50
2022-08-07T02:15:09.591Z,51.50
2022-08-07T02:17:31.675Z,51.12
2022-08-07T02:18:37.005Z,51.15
2022-08-07T02:20:06.737Z,50.90
2022-08-07T02:22:04.518Z,50.71
2022-08-07T02:23:11.723Z,50.50
2022-08-07T02:26:46.633Z,50.25
2022-08-07T02:27:52.895Z,50.24
2022-08-07T02:30:10.162Z,49.95
2022-08-07T02:31:28.186Z,50.09
2022-08-07T02:32:23.424Z,50.08
2022-08-07T02:34:50.993Z,50.06
2022-08-07T02:36:28.944Z,50.26
2022-08-07T02:38:12.001Z,50.02
2022-08-07T02:39:42.436Z,49.90
2022-08-07T02:40:35.028Z,49.88
2022-08-07T02:41:33.566Z,49.89
2022-08-07T02:42:37.946Z,49.98
2022-08-07T02:44:56.224Z,49.85
2022-08-07T02:47:48.937Z,49.84
2022-08-07T02:48:40.529Z,49.74
2022-08-07T02:49:56.252Z,49.73
2022-08-07T02:52:09.577Z,49.79
2022-08-07T02:53:23.750Z,49.79
2022-08-07T02:54:31.860Z,50.12
2022-08-07T02:56:53.094Z,50.51
2022-08-07T02:59:14.670Z,50.80
2022-08-07T03:00:20.440Z,50.70
2022-08-07T03:02:54.959Z,50.53
2022-08-07T03:03:57.414Z,50.67
2022-08-07T03:05:04.815Z,50.69
2022-08-07T03:07:42.961Z,50.75
2022-08-07T03:08:29.525Z,50.64
2022-08-07T03:09:43.527Z,50.61
2022-08-07T03:11:57.748Z,50.42
2022-08-07T03:14:10.646Z,50.43
2022-08-07T03:15:14.437Z,50.40
2022-08-07T03:17:36.321Z,50.85
2022-08-07T03:18:39.236Z,51.05
2022-08-07T03:19:44.945Z,51.14
2022-08-07T03:22:04.436Z,51.42
2022-08-07T03:23:19.153Z,51.38
2022-08-07T03:24:17.805Z,51.63
2022-08-07T03:25:21.024Z,51.50
2022-08-07T03:26:28.242Z,51.49
2022-08-07T03:27:59.520Z,51.16
2022-08-07T03:28:40.340Z,50.74
2022-08-07T03:29:51.426Z,50.82
2022-08-07T03:30:56.665Z,50.76
2022-08-07T03:33:15.883Z,50.31
2022-08-07T03:35:43.979Z,50.49
2022-08-07T03:37:55.402Z,50.06
2022-08-07T03:39:05.756Z,50.14
2022-08-07T03:40:15.533Z,50.19
2022-08-07T03:41:16.479Z,50.34
2022-08-07T03:42:20.830Z,50.34
2022-08-07T03:44:38.978Z,50.21
2022-08-07T03:47:10.971Z,50.01
2022-08-07T03:48:01.796Z,49.98
2022-08-07T03:49:07.935Z,49.68
2022-08-07T03:51:30.701Z,49.34
2022-08-07T03:52:34.699Z,49.15
2022-08-07T03:54:05.950Z,48.99
2022-08-07T03:54:54.305Z,48.89
2022-08-07T03:55:57.836Z,48.74
2022-08-07T03:57:03.806Z,48.66
2022-08-07T03:59:15.687Z,48.51
2022-08-07T04:00:21.115Z,48.62
2022-08-07T04:02:41.142Z,48.57
2022-08-07T04:03:53.662Z,48.61
2022-08-07T04:04:50.969Z,48.60
2022-08-07T04:05:58.753Z,48.56
2022-08-07T04:07:00.354Z,48.57
2022-08-07T04:09:19.423Z,48.54
2022-08-07T04:12:24.712Z,48.13
2022-08-07T04:14:10.705Z,47.93
2022-08-07T04:14:59.392Z,48.13
2022-08-07T04:16:04.344Z,48.18
2022-08-07T04:17:20.498Z,48.29
2022-08-07T04:19:51.161Z,48.22
2022-08-07T04:21:59.371Z,48.00
2022-08-07T04:23:01.861Z,47.88
2022-08-07T04:24:05.744Z,47.77
2022-08-07T04:26:21.829Z,47.63
2022-08-07T04:27:25.691Z,47.65
2022-08-07T04:28:28.659Z,47.48
2022-08-07T04:29:48.955Z,47.41
2022-08-07T04:32:03.345Z,47.17
2022-08-07T04:32:58.552Z,47.24
2022-08-07T04:34:02.045Z,47.22
2022-08-07T04:36:22.745Z,47.09
2022-08-07T04:37:24.989Z,47.01
2022-08-07T04:38:30.370Z,47.08
2022-08-07T04:39:35.581Z,46.99
2022-08-07T04:41:53.368Z,46.68
2022-08-07T04:43:01.334Z,46.53
2022-08-07T04:44:12.292Z,46.13
2022-08-07T04:46:29.405Z,45.87
2022-08-07T04:47:58.856Z,46.02
2022-08-07T04:49:17.701Z,45.90
2022-08-07T04:52:00.526Z,45.62
2022-08-07T04:53:16.427Z,45.71
2022-08-07T04:54:19.200Z,45.55
2022-08-07T04:58:14.866Z,44.99
2022-08-07T05:02:21.580Z,44.90
2022-08-07T05:03:59.620Z,44.86
2022-08-07T05:06:19.669Z,44.69
2022-08-07T05:09:01.369Z,44.75
2022-08-07T05:11:24.276Z,44.57
2022-08-07T05:15:23.588Z,44.64
2022-08-07T05:17:52.503Z,44.87
2022-08-07T05:22:00.316Z,45.04
2022-08-07T05:22:36.633Z,44.69
2022-08-07T05:25:00.423Z,43.92
2022-08-07T05:26:25.846Z,44.27
2022-08-07T05:28:03.271Z,44.54
2022-08-07T05:28:50.113Z,44.40
2022-08-07T05:29:53.758Z,44.32
2022-08-07T05:30:59.785Z,44.22
2022-08-07T05:32:07.312Z,44.15
2022-08-07T05:33:13.410Z,44.10
2022-08-07T05:34:26.296Z,43.78
2022-08-07T05:35:33.578Z,44.00
2022-08-07T05:36:43.852Z,44.39
2022-08-07T05:38:08.882Z,43.98
2022-08-07T05:39:09.027Z,43.76
2022-08-07T05:40:16.464Z,43.67
2022-08-07T05:41:14.549Z,43.84
2022-08-07T05:42:17.903Z,44.16
2022-08-07T05:43:49.994Z,43.56
2022-08-07T05:45:47.325Z,43.75
2022-08-07T05:48:03.615Z,43.21
2022-08-07T05:50:21.990Z,42.51
2022-08-07T05:54:12.475Z,42.21
2022-08-07T05:56:19.963Z,41.81
2022-08-07T05:57:30.168Z,41.68
2022-08-07T05:58:36.584Z,41.81
2022-08-07T05:59:57.939Z,41.88
2022-08-07T06:02:04.333Z,41.04
2022-08-07T06:03:10.353Z,41.43
2022-08-07T06:05:31.357Z,40.76
2022-08-07T06:06:35.756Z,40.73
2022-08-07T06:08:14.918Z,40.94
2022-08-07T06:10:05.300Z,40.42
2022-08-07T06:12:07.451Z,40.65
2022-08-07T06:13:13.698Z,40.72
2022-08-07T06:14:21.245Z,40.94
2022-08-07T06:16:34.257Z,40.28
2022-08-07T06:17:41.156Z,40.00
2022-08-07T06:18:51.759Z,40.00
2022-08-07T06:20:04.293Z,40.05
2022-08-07T06:22:15.331Z,40.06
2022-08-07T06:22:15.779Z,40.06
2022-08-07T06:24:37.550Z,40.00
2022-08-07T06:24:38.061Z,40.15
2022-08-07T06:26:52.899Z,39.42
2022-08-07T06:28:04.573Z,39.27
2022-08-07T06:29:08.328Z,39.65
2022-08-07T06:30:31.970Z,39.88
2022-08-07T06:31:19.095Z,38.88
2022-08-07T06:32:23.628Z,39.08
2022-08-07T06:35:00.342Z,39.32
2022-08-07T06:36:12.918Z,38.55
2022-08-07T06:37:12.311Z,38.11
2022-08-07T06:38:20.210Z,37.98
2022-08-07T06:40:39.556Z,37.55
2022-08-07T06:43:21.497Z,36.84
2022-08-07T06:46:03.704Z,37.37
2022-08-07T06:47:11.990Z,37.75
2022-08-07T06:48:13.620Z,37.72
2022-08-07T06:49:19.141Z,37.35
2022-08-07T06:50:26.884Z,37.37
2022-08-07T06:51:34.201Z,37.10
2022-08-07T06:55:28.187Z,36.37
2022-08-07T06:55:33.327Z,36.46
2022-08-07T06:56:15.193Z,36.28
2022-08-07T06:57:14.467Z,36.20
2022-08-07T06:58:21.627Z,36.25
2022-08-07T07:00:43.426Z,35.68
2022-08-07T07:01:50.974Z,36.16
2022-08-07T07:02:57.527Z,35.75
2022-08-07T07:04:28.449Z,35.68
2022-08-07T07:06:26.370Z,34.86
2022-08-07T07:08:46.594Z,33.89
2022-08-07T07:09:51.125Z,33.58
2022-08-07T07:12:18.062Z,33.06
2022-08-07T07:15:03.731Z,33.73
2022-08-07T07:19:11.225Z,33.69
2022-08-07T07:22:04.705Z,33.86
2022-08-07T07:24:08.042Z,34.03
2022-08-07T07:24:09.134Z,33.82
2022-08-07T07:24:56.856Z,33.57
2022-08-07T07:27:12.789Z,33.30
2022-08-07T07:30:09.294Z,32.74
2022-08-07T07:32:43.382Z,32.81
2022-08-07T07:33:56.984Z,33.15
2022-08-07T07:35:00.412Z,33.24
2022-08-07T07:37:49.542Z,32.50
2022-08-07T07:39:52.565Z,32.57
2022-08-07T07:42:13.950Z,32.83
2022-08-07T07:44:32.806Z,32.54
2022-08-07T07:46:36.835Z,32.90
2022-08-07T07:47:58.213Z,32.25
2022-08-07T07:50:34.082Z,32.43
2022-08-07T07:55:22.981Z,32.52
2022-08-07T07:57:52.103Z,31.74
2022-08-07T08:00:02.693Z,32.42
2022-08-07T08:04:09.743Z,31.62
2022-08-07T08:04:57.865Z,31.73
2022-08-07T08:07:19.979Z,30.95
2022-08-07T08:08:35.037Z,31.01
2022-08-07T08:09:30.788Z,30.80
2022-08-07T08:12:02.102Z,29.86
2022-08-07T08:13:02.927Z,30.39
2022-08-07T08:14:06.481Z,30.34
2022-08-07T08:16:36.020Z,29.47
2022-08-07T08:18:56.151Z,30.18
2022-08-07T08:21:22.076Z,29.29
2022-08-07T08:25:25.095Z,28.67
2022-08-07T08:27:33.635Z,29.27
2022-08-07T08:29:56.054Z,29.14
2022-08-07T08:32:24.945Z,28.97
2022-08-07T08:33:26.394Z,29.70
2022-08-07T08:34:33.197Z,29.47
2022-08-07T08:36:57.699Z,28.85
2022-08-07T08:38:03.610Z,29.00
2022-08-07T08:39:06.964Z,29.11
2022-08-07T08:41:57.573Z,28.12
2022-08-07T08:44:41.295Z,27.90
2022-08-07T08:47:27.637Z,28.34
2022-08-07T08:48:53.008Z,28.05
2022-08-07T08:50:05.602Z,26.56
2022-08-07T08:52:32.278Z,27.46
2022-08-07T08:57:59.546Z,26.87
2022-08-07T08:59:27.833Z,26.77
2022-08-07T09:02:04.319Z,25.83
2022-08-07T09:05:02.187Z,25.72
2022-08-07T09:08:11.812Z,26.42
2022-08-07T09:09:36.754Z,25.96
2022-08-07T09:12:20.027Z,24.60
2022-08-07T09:16:35.351Z,24.32
2022-08-07T09:17:59.622Z,24.63
2022-08-07T09:18:59.477Z,23.79
2022-08-07T09:24:28.450Z,23.54
2022-08-07T09:24:30.793Z,23.52
2022-08-07T09:28:01.315Z,23.89
2022-08-07T09:30:06.307Z,23.39
2022-08-07T09:32:41.760Z,23.11
2022-08-07T09:36:04.047Z,22.85
2022-08-07T09:38:10.552Z,23.15
2022-08-07T09:40:55.073Z,23.44
2022-08-07T09:44:58.721Z,23.94
2022-08-07T09:47:42.659Z,23.99
2022-08-07T09:52:34.457Z,25.37
2022-08-07T09:53:40.826Z,25.83
2022-08-07T09:56:34.055Z,28.80
2022-08-07T09:59:46.739Z,29.28
2022-08-07T10:01:00.557Z,29.82
2022-08-07T10:02:33.423Z,22.22
2022-08-07T10:05:59.050Z,21.46
2022-08-07T10:08:26.844Z,22.20
2022-08-07T10:10:00.808Z,23.17
2022-08-07T10:12:00.099Z,25.55
2022-08-07T10:14:11.715Z,24.15
2022-08-07T10:15:25.001Z,22.71
2022-08-07T10:16:49.415Z,20.99
2022-08-07T10:19:17.964Z,21.09
2022-08-07T10:22:18.377Z,21.13
2022-08-07T10:24:04.843Z,20.87
2022-08-07T10:25:06.697Z,20.46
2022-08-07T10:34:45.269Z,19.26
2022-08-07T10:36:12.599Z,19.54
2022-08-07T10:37:48.125Z,19.73
2022-08-07T10:40:08.927Z,19.56
2022-08-07T10:43:01.094Z,18.62
2022-08-07T10:45:44.626Z,19.72
2022-08-07T10:48:34.635Z,19.26
2022-08-07T10:49:51.202Z,19.12
2022-08-07T10:52:14.040Z,19.18
2022-08-07T10:56:31.907Z,21.32
2022-08-07T10:59:21.201Z,22.34
2022-08-07T11:02:05.458Z,23.19
2022-08-07T11:03:18.744Z,22.49
2022-08-07T11:04:43.635Z,21.40
2022-08-07T11:07:59.327Z,23.56
2022-08-07T11:09:11.133Z,24.21
2022-08-07T11:11:51.889Z,25.70
2022-08-07T11:14:44.700Z,26.03
2022-08-07T11:17:45.068Z,25.71
2022-08-07T11:18:54.045Z,25.89
2022-08-07T11:20:03.359Z,25.82
2022-08-07T11:24:25.624Z,24.77
2022-08-07T11:29:42.818Z,26.33
2022-08-07T11:32:43.479Z,26.72
2022-08-07T11:35:11.260Z,27.21
2022-08-07T11:37:58.255Z,26.72
2022-08-07T11:39:19.502Z,27.16
2022-08-07T11:42:18.730Z,28.48
2022-08-07T11:43:54.449Z,28.38
2022-08-07T11:46:38.056Z,28.82
2022-08-07T11:49:51.580Z,29.29
2022-08-07T11:54:00.882Z,29.36
2022-08-07T12:02:30.322Z,30.66
2022-08-07T12:05:28.753Z,30.68
2022-08-07T12:08:25.910Z,30.23
2022-08-07T12:12:17.712Z,30.24
2022-08-07T12:14:53.761Z,30.92
2022-08-07T12:16:06.643Z,31.95
2022-08-07T12:18:37.246Z,31.62
2022-08-07T12:20:04.906Z,31.50
2022-08-07T12:22:39.415Z,31.77
2022-08-07T12:24:52.555Z,31.77
2022-08-07T12:27:18.012Z,31.76
2022-08-07T12:28:39.389Z,31.46
2022-08-07T12:31:17.101Z,32.80
2022-08-07T12:34:01.830Z,32.47
2022-08-07T12:35:08.335Z,31.91
2022-08-07T12:38:11.387Z,31.94
2022-08-07T12:39:50.895Z,30.41
2022-08-07T12:40:56.121Z,29.79
2022-08-07T12:42:02.619Z,28.79
2022-08-07T12:44:23.135Z,28.53
2022-08-07T12:47:27.145Z,28.58
2022-08-07T12:50:39.592Z,27.46
2022-08-07T12:51:46.768Z,28.21
2022-08-07T12:58:53.253Z,28.01
2022-08-07T13:01:32.627Z,28.64
2022-08-07T13:04:32.609Z,28.65
2022-08-07T13:06:03.676Z,28.87
2022-08-07T13:10:21.572Z,29.05
2022-08-07T13:15:32.487Z,29.85
2022-08-07T13:18:25.833Z,29.94
2022-08-07T13:19:50.788Z,29.74
2022-08-07T13:22:27.570Z,30.17
2022-08-07T13:24:55.335Z,30.44
2022-08-07T13:28:05.570Z,30.13
2022-08-07T13:30:03.697Z,30.12
2022-08-07T13:32:37.638Z,30.74
2022-08-07T13:35:21.349Z,31.45
2022-08-07T13:37:58.771Z,31.01
2022-08-07T13:43:11.782Z,31.59
2022-08-07T13:46:16.373Z,31.18
2022-08-07T13:52:43.235Z,31.16
2022-08-07T13:55:21.431Z,30.99
2022-08-07T13:56:36.217Z,30.91
2022-08-07T13:58:56.157Z,31.84
2022-08-07T14:01:20.385Z,31.72
2022-08-07T14:04:07.284Z,33.01
2022-08-07T14:06:17.902Z,34.25
2022-08-07T14:08:53.658Z,33.67
2022-08-07T14:10:02.273Z,34.54
2022-08-07T14:11:15.314Z,34.58
2022-08-07T14:13:34.693Z,33.78
2022-08-07T14:16:05.426Z,33.53
2022-08-07T14:20:41.712Z,34.23
2022-08-07T14:22:34.802Z,33.76
2022-08-07T14:24:00.516Z,35.14
2022-08-07T14:24:58.891Z,36.68
2022-08-07T14:28:57.265Z,35.62
2022-08-07T14:30:06.320Z,35.47
2022-08-07T14:32:13.825Z,35.14
2022-08-07T14:33:22.208Z,36.08
2022-08-07T14:34:30.130Z,36.09
2022-08-07T14:36:55.864Z,34.92
2022-08-07T14:38:03.033Z,35.45
2022-08-07T14:39:03.990Z,35.38
2022-08-07T14:47:48.158Z,38.33
2022-08-07T14:48:54.930Z,38.33
2022-08-07T14:49:59.354Z,38.49
2022-08-07T15:12:35.549Z,41.64
2022-08-07T15:16:55.002Z,42.28
2022-08-07T15:19:12.291Z,42.53
2022-08-07T15:21:45.166Z,42.52
2022-08-07T15:28:31.055Z,43.75
2022-08-07T15:32:01.275Z,43.58
2022-08-07T15:39:04.960Z,43.57
2022-08-07T15:40:32.070Z,43.61
2022-08-07T15:42:43.261Z,42.81
2022-08-07T15:44:08.508Z,42.19
2022-08-07T15:54:41.709Z,40.08
2022-08-07T15:57:01.210Z,40.03
2022-08-07T15:59:38.929Z,49.29
2022-08-07T16:02:01.866Z,48.55
2022-08-07T16:03:02.376Z,45.06
2022-08-07T16:04:14.540Z,52.24
2022-08-07T16:05:18.766Z,48.90
2022-08-07T16:09:22.820Z,47.75
2022-08-07T16:10:39.667Z,54.89
2022-08-07T16:15:55.612Z,61.93
2022-08-07T16:18:49.390Z,57.24
2022-08-07T16:22:02.359Z,52.89
2022-08-07T16:23:13.681Z,51.64
2022-08-07T16:25:57.037Z,55.12
2022-08-07T16:30:06.124Z,47.37
2022-08-07T16:30:31.150Z,45.82
2022-08-07T16:31:50.755Z,51.48
2022-08-07T16:34:33.877Z,49.53
2022-08-07T16:38:06.070Z,49.95
2022-08-07T16:40:28.115Z,49.78
2022-08-07T16:41:41.492Z,48.75
2022-08-07T16:46:21.213Z,46.25
2022-08-07T16:50:28.932Z,46.45
2022-08-07T16:55:52.733Z,46.72
2022-08-07T17:00:06.164Z,46.66
2022-08-07T17:03:05.829Z,46.36
2022-08-07T17:06:28.357Z,46.58
2022-08-07T17:13:17.123Z,43.91
2022-08-07T17:14:54.900Z,45.57
2022-08-07T17:17:46.470Z,45.96
2022-08-07T17:19:03.519Z,46.15
2022-08-07T17:21:51.876Z,46.20
2022-08-07T17:24:27.044Z,45.71
2022-08-07T17:25:52.578Z,45.95
2022-08-07T17:30:16.122Z,46.25
2022-08-07T17:34:08.465Z,46.66
2022-08-07T17:34:34.490Z,46.43
2022-08-07T17:35:55.247Z,46.55
2022-08-07T17:42:01.495Z,45.89
2022-08-07T17:44:14.738Z,45.94
2022-08-07T17:49:59.736Z,46.28
2022-08-07T17:58:05.109Z,46.11
2022-08-07T18:00:48.775Z,46.94
2022-08-07T18:04:03.743Z,46.75
2022-08-07T18:07:38.282Z,47.05
2022-08-07T18:12:17.844Z,46.69
2022-08-07T18:14:37.441Z,46.97
2022-08-07T18:16:04.880Z,46.82
2022-08-07T18:18:45.477Z,46.88
2022-08-07T18:21:53.561Z,46.22
2022-08-07T18:24:07.197Z,46.07
2022-08-07T18:27:04.775Z,46.96
2022-08-07T18:31:56.229Z,47.56
2022-08-07T18:33:38.337Z,47.54
2022-08-07T18:35:07.983Z,47.17
2022-08-07T18:38:55.757Z,47.09
2022-08-07T18:41:44.951Z,46.90
2022-08-07T18:45:39.982Z,46.92
2022-08-07T18:46:25.456Z,46.77
2022-08-07T18:51:08.953Z,46.71
2022-08-07T18:54:27.967Z,46.55
2022-08-07T18:55:43.328Z,46.76
2022-08-07T18:57:27.352Z,46.98
2022-08-07T19:00:32.026Z,47.06
2022-08-07T19:02:19.742Z,46.86
2022-08-07T19:02:53.773Z,46.75
2022-08-07T19:06:03.355Z,46.46
2022-08-07T19:09:59.076Z,46.73
2022-08-07T19:11:36.152Z,46.84
2022-08-07T19:13:50.315Z,46.99
2022-08-07T19:17:05.678Z,46.46
2022-08-07T19:19:47.689Z,46.49
2022-08-07T19:22:47.910Z,46.67
2022-08-07T19:26:22.929Z,46.62
2022-08-07T19:26:29.299Z,46.28
2022-08-07T19:28:58.376Z,46.40
2022-08-07T19:31:05.965Z,46.85
2022-08-07T19:35:23.891Z,46.32
2022-08-07T19:39:09.887Z,45.51
2022-08-07T19:42:49.749Z,44.94
2022-08-07T19:46:04.952Z,44.86
2022-08-07T19:50:44.393Z,44.84
2022-08-07T19:51:50.822Z,44.56
2022-08-07T19:52:59.266Z,44.60
2022-08-07T19:55:25.741Z,44.99
2022-08-07T19:58:13.104Z,45.49
2022-08-07T20:02:21.356Z,45.98
2022-08-07T20:04:31.661Z,45.40
2022-08-07T20:10:35.583Z,46.11
2022-08-07T20:12:49.157Z,46.57
2022-08-07T20:15:19.042Z,46.31
2022-08-07T20:19:02.723Z,46.09
2022-08-07T20:21:47.244Z,46.44
2022-08-07T20:24:38.963Z,46.14
2022-08-07T20:27:04.651Z,45.97
2022-08-07T20:31:01.190Z,46.21
2022-08-07T20:33:44.398Z,47.24
2022-08-07T20:36:09.499Z,46.81
2022-08-07T20:40:02.920Z,44.24
2022-08-07T20:42:15.083Z,43.62
2022-08-07T20:43:21.616Z,45.01
2022-08-07T20:46:26.655Z,44.75
2022-08-07T20:48:29.787Z,45.17
2022-08-07T20:49:59.636Z,45.95
2022-08-07T20:50:33.728Z,44.95
2022-08-07T20:52:51.896Z,42.97
2022-08-07T20:55:09.483Z,46.03
2022-08-07T20:56:20.120Z,46.01
2022-08-07T20:57:29.015Z,46.36
2022-08-07T20:58:36.448Z,46.15
2022-08-07T21:02:27.802Z,44.86
2022-08-07T21:03:30.637Z,45.25
2022-08-07T21:04:36.221Z,45.96
2022-08-07T21:05:55.912Z,46.34
2022-08-07T21:08:13.514Z,46.02
2022-08-07T21:09:19.932Z,45.27
2022-08-07T21:10:31.409Z,45.96
2022-08-07T21:13:16.744Z,43.94
2022-08-07T21:14:33.855Z,45.30
2022-08-07T21:15:58.754Z,45.30
2022-08-07T21:18:17.259Z,45.22
2022-08-07T21:20:30.414Z,44.71
2022-08-07T21:22:51.191Z,45.78
2022-08-07T21:26:52.711Z,45.57
2022-08-07T21:28:06.294Z,45.42
2022-08-07T21:30:30.939Z,45.11
2022-08-07T21:33:14.534Z,44.82
2022-08-07T21:34:34.483Z,44.61
2022-08-07T21:37:57.541Z,43.89
2022-08-07T21:38:39.165Z,44.77
2022-08-07T21:41:52.150Z,44.95
2022-08-07T21:44:33.348Z,45.07
2022-08-07T21:51:51.033Z,46.91
2022-08-07T21:54:20.992Z,47.44
2022-08-07T21:57:31.595Z,46.74
2022-08-07T21:58:45.895Z,46.38
2022-08-07T22:02:06.979Z,45.08
2022-08-07T22:04:10.772Z,44.50
2022-08-07T22:06:54.013Z,45.58
2022-08-07T22:10:37.534Z,45.19
2022-08-07T22:13:03.385Z,46.39
2022-08-07T22:20:02.675Z,44.66
2022-08-07T22:21:21.209Z,45.40
2022-08-07T22:23:48.972Z,45.35
2022-08-07T22:24:56.269Z,45.28
2022-08-07T22:28:20.063Z,45.58
2022-08-07T22:30:18.869Z,46.06
2022-08-07T22:33:13.737Z,46.10
2022-08-07T22:35:49.902Z,45.45
2022-08-07T22:39:53.532Z,45.38
2022-08-07T22:42:19.043Z,45.70
2022-08-07T22:44:59.519Z,44.96
2022-08-07T22:49:54.462Z,45.02
2022-08-07T22:51:08.583Z,45.03
2022-08-07T22:54:15.066Z,44.51
2022-08-07T22:57:30.517Z,44.76
2022-08-07T23:00:28.777Z,44.20
2022-08-07T23:01:58.937Z,43.40
2022-08-07T23:04:57.023Z,45.02
2022-08-07T23:07:41.324Z,45.51
2022-08-07T23:10:48.069Z,44.74
2022-08-07T23:14:09.641Z,44.83
2022-08-07T23:14:57.146Z,44.61
2022-08-07T23:18:08.590Z,44.07
2022-08-07T23:19:27.917Z,44.21
2022-08-07T23:21:11.081Z,43.66
2022-08-07T23:22:39.557Z,43.65
2022-08-07T23:25:10.294Z,43.61
2022-08-07T23:26:23.339Z,43.18
2022-08-07T23:28:22.400Z,43.36
2022-08-07T23:31:06.556Z,43.65
2022-08-07T23:34:35.913Z,42.79
2022-08-07T23:34:56.327Z,42.07
2022-08-07T23:38:08.091Z,42.61
2022-08-07T23:39:23.244Z,42.40
2022-08-07T23:42:05.747Z,42.45
2022-08-07T23:43:22.521Z,42.39
2022-08-07T23:46:23.501Z,42.77
2022-08-07T23:49:05.991Z,42.33
2022-08-07T23:50:26.974Z,42.46
2022-08-07T23:53:17.042Z,42.07
2022-08-07T23:54:19.505Z,41.76
2022-08-07T23:55:53.388Z,41.42
2022-08-07T23:58:21.412Z,41.34
